createdAt,value
2023-03-22T00:01:26.393Z,63.10
2023-03-22T00:03:59.019Z,63.00
2023-03-22T00:06:30.262Z,63.00
2023-03-22T00:09:00.422Z,62.90
2023-03-22T00:11:27.400Z,63.00
2023-03-22T00:14:03.857Z,63.00
2023-03-22T00:16:38.705Z,62.90
2023-03-22T00:19:11.583Z,62.90
2023-03-22T00:21:39.551Z,62.90
2023-03-22T00:24:09.730Z,62.90
2023-03-22T00:26:39.411Z,62.90
2023-03-22T00:29:09.824Z,62.90
2023-03-22T00:31:38.580Z,62.90
2023-03-22T00:34:08.040Z,62.90
2023-03-22T00:36:40.799Z,62.80
2023-03-22T00:39:12.208Z,62.80
2023-03-22T00:41:42.565Z,62.80
2023-03-22T00:46:58.768Z,62.90
2023-03-22T00:52:09.148Z,62.80
2023-03-22T00:57:22.611Z,62.70
2023-03-22T00:59:56.675Z,62.70
2023-03-22T01:02:32.382Z,62.70
2023-03-22T01:05:00.644Z,62.70
2023-03-22T01:07:32.404Z,62.70
2023-03-22T01:10:03.842Z,62.70
2023-03-22T01:12:33.056Z,62.70
2023-03-22T01:15:04.798Z,62.60
2023-03-22T01:17:40.156Z,62.60
2023-03-22T01:20:11.263Z,62.60
2023-03-22T01:22:39.432Z,62.60
2023-03-22T01:25:07.200Z,63.20
2023-03-22T01:27:37.251Z,62.60
2023-03-22T01:30:08.657Z,62.60
2023-03-22T01:32:39.805Z,62.50
2023-03-22T01:35:10.934Z,62.60
2023-03-22T01:37:43.788Z,62.50
2023-03-22T01:40:16.747Z,62.50
2023-03-22T01:42:48.255Z,62.50
2023-03-22T01:45:44.294Z,62.50
2023-03-22T01:48:47.019Z,62.50
2023-03-22T01:51:23.940Z,62.40
2023-03-22T01:54:04.748Z,62.40
2023-03-22T01:56:38.063Z,62.40
2023-03-22T01:59:12.407Z,62.30
2023-03-22T02:01:42.542Z,62.40
2023-03-22T02:04:23.384Z,62.30
2023-03-22T02:09:50.318Z,62.30
2023-03-22T02:12:38.319Z,62.20
2023-03-22T02:15:10.855Z,62.20
2023-03-22T02:18:04.279Z,62.30
2023-03-22T02:21:10.931Z,62.20
2023-03-22T02:24:13.876Z,62.20
2023-03-22T02:27:24.364Z,62.10
2023-03-22T02:30:25.495Z,62.10
2023-03-22T02:33:18.267Z,62.10
2023-03-22T02:36:22.492Z,62.10
2023-03-22T02:39:29.517Z,62.10
2023-03-22T02:42:38.571Z,62.10
2023-03-22T02:45:33.210Z,62.10
2023-03-22T02:48:23.318Z,62.10
2023-03-22T02:51:04.288Z,62.00
2023-03-22T02:53:58.234Z,62.10
2023-03-22T02:56:45.918Z,62.00
2023-03-22T02:59:17.504Z,62.10
2023-03-22T03:02:00.936Z,62.00
2023-03-22T03:04:36.343Z,61.90
2023-03-22T03:07:17.918Z,62.00
2023-03-22T03:09:49.204Z,62.00
2023-03-22T03:12:23.926Z,61.90
2023-03-22T03:14:53.819Z,61.90
2023-03-22T03:17:56.117Z,62.00
2023-03-22T03:20:52.642Z,61.90
2023-03-22T03:23:40.192Z,62.00
2023-03-22T03:29:58.944Z,62.00
2023-03-22T03:33:03.019Z,61.90
2023-03-22T03:36:07.372Z,61.90
2023-03-22T03:38:46.106Z,61.80
2023-03-22T03:41:39.457Z,61.90
2023-03-22T03:44:13.744Z,61.90
2023-03-22T03:46:44.418Z,62.50
2023-03-22T03:49:19.449Z,61.80
2023-03-22T03:54:40.868Z,61.70
2023-03-22T03:57:09.903Z,61.80
2023-03-22T03:59:40.202Z,61.70
2023-03-22T04:02:13.642Z,61.70
2023-03-22T04:04:45.184Z,61.70
2023-03-22T04:07:13.505Z,61.70
2023-03-22T04:09:46.516Z,61.70
2023-03-22T04:12:16.848Z,61.70
2023-03-22T04:14:54.029Z,61.70
2023-03-22T04:17:26.102Z,61.70
2023-03-22T04:20:00.315Z,61.70
2023-03-22T04:22:30.617Z,61.70
2023-03-22T04:27:45.724Z,61.80
2023-03-22T04:30:19.198Z,61.70
2023-03-22T04:32:51.939Z,61.70
2023-03-22T04:35:21.461Z,61.70
2023-03-22T04:37:54.078Z,61.70
2023-03-22T04:40:24.022Z,61.70
2023-03-22T04:42:59.463Z,61.70
2023-03-22T04:45:34.640Z,61.70
2023-03-22T04:48:04.206Z,61.50
2023-03-22T04:50:35.831Z,61.60
2023-03-22T04:55:47.853Z,61.50
2023-03-22T04:58:21.576Z,61.50
2023-03-22T05:00:55.752Z,61.50
2023-03-22T05:06:11.305Z,61.50
2023-03-22T05:08:42.721Z,61.60
2023-03-22T05:11:16.942Z,61.80
2023-03-22T05:13:48.395Z,61.70
2023-03-22T05:16:20.524Z,61.60
2023-03-22T05:18:54.861Z,61.60
2023-03-22T05:21:30.282Z,61.60
2023-03-22T05:24:01.459Z,61.60
2023-03-22T05:26:32.171Z,61.60
2023-03-22T05:29:04.335Z,61.60
2023-03-22T05:31:37.296Z,61.60
2023-03-22T05:34:10.014Z,61.60
2023-03-22T05:36:41.978Z,61.50
2023-03-22T05:39:13.045Z,61.50
2023-03-22T05:41:40.053Z,61.50
2023-03-22T05:44:11.361Z,61.40
2023-03-22T05:46:39.645Z,61.40
2023-03-22T05:49:12.014Z,61.40
2023-03-22T05:51:45.353Z,61.40
2023-03-22T05:54:16.876Z,61.30
2023-03-22T05:56:50.369Z,61.30
2023-03-22T05:59:22.245Z,61.20
2023-03-22T06:01:53.394Z,61.70
2023-03-22T06:04:24.651Z,61.00
2023-03-22T06:06:55.852Z,61.00
2023-03-22T06:09:27.129Z,61.00
2023-03-22T06:11:56.138Z,61.20
2023-03-22T06:14:27.463Z,61.20
2023-03-22T06:16:58.340Z,61.80
2023-03-22T06:19:28.533Z,61.20
2023-03-22T06:22:00.001Z,61.60
2023-03-22T06:24:30.238Z,61.60
2023-03-22T06:27:05.339Z,61.60
2023-03-22T06:29:32.503Z,61.60
2023-03-22T06:32:08.166Z,61.40
2023-03-22T06:34:36.689Z,61.40
2023-03-22T06:37:10.297Z,61.30
2023-03-22T06:39:38.461Z,61.20
2023-03-22T06:42:07.488Z,61.00
2023-03-22T06:44:36.684Z,61.10
2023-03-22T06:47:08.498Z,61.00
2023-03-22T06:49:38.180Z,60.70
2023-03-22T06:52:07.807Z,60.70
2023-03-22T06:54:38.950Z,60.60
2023-03-22T06:57:07.439Z,60.50
2023-03-22T06:59:38.572Z,60.40
2023-03-22T07:02:06.888Z,60.20
2023-03-22T07:04:34.678Z,60.00
2023-03-22T07:07:06.016Z,59.80
2023-03-22T07:09:38.895Z,59.80
2023-03-22T07:12:09.221Z,59.80
2023-03-22T07:14:37.055Z,59.80
2023-03-22T07:17:07.375Z,59.80
2023-03-22T07:19:36.483Z,59.90
2023-03-22T07:22:08.747Z,60.50
2023-03-22T07:24:50.274Z,60.70
2023-03-22T07:27:28.377Z,60.30
2023-03-22T07:30:00.478Z,60.40
2023-03-22T07:32:33.267Z,60.80
2023-03-22T07:35:03.605Z,60.70
2023-03-22T07:37:33.721Z,60.70
2023-03-22T07:40:06.902Z,60.60
2023-03-22T07:45:31.718Z,60.00
2023-03-22T07:48:01.948Z,59.50
2023-03-22T07:50:38.164Z,59.50
2023-03-22T07:53:09.372Z,59.20
2023-03-22T07:55:44.351Z,58.80
2023-03-22T07:58:16.197Z,59.10
2023-03-22T08:00:46.230Z,58.80
2023-03-22T08:03:18.638Z,58.80
2023-03-22T08:05:49.527Z,58.90
2023-03-22T08:08:24.771Z,58.30
2023-03-22T08:10:52.050Z,58.00
2023-03-22T08:13:23.421Z,57.60
2023-03-22T08:15:54.905Z,57.50
2023-03-22T08:18:27.307Z,57.60
2023-03-22T08:21:07.146Z,56.90
2023-03-22T08:23:42.514Z,57.40
2023-03-22T08:28:58.955Z,57.50
2023-03-22T08:31:29.733Z,57.20
2023-03-22T08:34:03.472Z,57.10
2023-03-22T08:36:32.724Z,57.00
2023-03-22T08:39:04.263Z,56.80
2023-03-22T08:41:35.126Z,56.50
2023-03-22T08:44:06.270Z,56.30
2023-03-22T08:46:36.348Z,56.30
2023-03-22T08:51:50.280Z,55.80
2023-03-22T08:54:21.815Z,56.30
2023-03-22T08:56:53.457Z,56.10
2023-03-22T08:59:23.647Z,55.90
2023-03-22T09:01:53.360Z,56.30
2023-03-22T09:04:26.318Z,55.80
2023-03-22T09:06:54.700Z,55.90
2023-03-22T09:09:24.941Z,55.90
2023-03-22T09:11:54.015Z,55.40
2023-03-22T09:14:22.532Z,55.20
2023-03-22T09:16:53.870Z,55.30
2023-03-22T09:19:24.425Z,55.20
2023-03-22T09:21:55.776Z,55.20
2023-03-22T09:24:22.848Z,55.20
2023-03-22T09:26:50.365Z,55.50
2023-03-22T09:29:21.607Z,55.30
2023-03-22T09:32:01.775Z,55.10
2023-03-22T09:34:33.470Z,54.90
2023-03-22T09:37:07.303Z,54.90
2023-03-22T09:39:34.553Z,55.10
2023-03-22T09:42:10.206Z,54.90
2023-03-22T09:44:47.861Z,54.70
2023-03-22T09:47:22.228Z,54.80
2023-03-22T09:49:59.119Z,54.70
2023-03-22T09:52:28.743Z,54.60
2023-03-22T09:55:00.670Z,54.70
2023-03-22T09:57:45.150Z,54.70
2023-03-22T10:00:36.428Z,54.60
2023-03-22T10:03:50.463Z,54.50
2023-03-22T10:06:27.300Z,54.40
2023-03-22T10:09:30.758Z,54.70
2023-03-22T10:12:53.692Z,54.50
2023-03-22T10:15:35.373Z,54.70
2023-03-22T10:18:08.735Z,54.50
2023-03-22T10:21:10.046Z,54.50
2023-03-22T10:24:23.144Z,54.90
2023-03-22T10:26:52.960Z,55.10
2023-03-22T10:29:44.206Z,55.40
2023-03-22T10:32:27.681Z,55.50
2023-03-22T10:34:58.621Z,55.10
2023-03-22T10:37:34.559Z,55.30
2023-03-22T10:40:07.976Z,55.60
2023-03-22T10:42:41.918Z,55.10
2023-03-22T10:45:18.616Z,55.20
2023-03-22T10:48:08.441Z,54.90
2023-03-22T10:50:41.966Z,54.90
2023-03-22T10:53:18.689Z,55.20
2023-03-22T10:55:46.571Z,55.50
2023-03-22T10:58:20.205Z,55.40
2023-03-22T11:01:05.748Z,55.20
2023-03-22T11:03:47.223Z,54.40
2023-03-22T11:06:31.428Z,54.90
2023-03-22T11:09:03.661Z,55.20
2023-03-22T11:11:42.353Z,55.40
2023-03-22T11:14:21.685Z,55.80
2023-03-22T11:17:14.868Z,55.70
2023-03-22T11:20:12.843Z,56.00
2023-03-22T11:22:49.462Z,56.10
2023-03-22T11:25:43.971Z,56.30
2023-03-22T11:31:29.634Z,56.60
2023-03-22T11:34:02.800Z,56.40
2023-03-22T11:36:33.409Z,56.30
2023-03-22T11:39:06.382Z,56.20
2023-03-22T11:41:39.160Z,56.40
2023-03-22T11:44:23.360Z,56.50
2023-03-22T11:47:06.854Z,56.60
2023-03-22T11:49:50.797Z,56.40
2023-03-22T11:58:00.317Z,56.70
2023-03-22T12:03:19.849Z,57.00
2023-03-22T12:05:53.661Z,56.40
2023-03-22T12:08:48.257Z,56.40
2023-03-22T12:11:34.170Z,56.40
2023-03-22T12:14:28.621Z,56.50
2023-03-22T12:17:12.923Z,56.60
2023-03-22T12:20:21.672Z,56.60
2023-03-22T12:22:53.730Z,57.20
2023-03-22T12:25:37.149Z,56.80
2023-03-22T12:28:09.931Z,56.80
2023-03-22T12:30:58.414Z,57.20
2023-03-22T12:33:46.539Z,57.20
2023-03-22T12:36:48.054Z,57.30
2023-03-22T12:39:45.607Z,57.10
2023-03-22T12:42:30.872Z,57.70
2023-03-22T12:45:12.287Z,57.50
2023-03-22T12:47:49.642Z,57.50
2023-03-22T12:50:55.223Z,57.30
2023-03-22T12:53:29.587Z,57.40
2023-03-22T12:56:03.995Z,57.60
2023-03-22T12:58:36.343Z,57.70
2023-03-22T13:04:41.768Z,57.70
2023-03-22T13:07:37.015Z,57.80
2023-03-22T13:10:40.266Z,57.70
2023-03-22T13:13:28.753Z,57.70
2023-03-22T13:16:24.455Z,58.00
2023-03-22T13:19:00.989Z,57.50
2023-03-22T13:21:41.483Z,58.10
2023-03-22T13:24:16.875Z,57.70
2023-03-22T13:26:54.132Z,57.80
2023-03-22T13:29:40.622Z,57.40
2023-03-22T13:32:30.106Z,57.30
2023-03-22T13:34:57.327Z,58.00
2023-03-22T13:37:58.782Z,57.80
2023-03-22T13:40:52.005Z,57.70
2023-03-22T13:43:31.909Z,58.20
2023-03-22T13:46:14.183Z,57.80
2023-03-22T13:49:21.967Z,57.90
2023-03-22T13:51:52.606Z,57.90
2023-03-22T13:54:26.834Z,58.10
2023-03-22T13:57:03.801Z,58.40
2023-03-22T14:00:11.160Z,58.60
2023-03-22T14:02:44.364Z,58.40
2023-03-22T14:05:26.170Z,58.20
2023-03-22T14:08:07.786Z,58.20
2023-03-22T14:11:00.358Z,58.20
2023-03-22T14:13:50.118Z,58.20
2023-03-22T14:16:43.676Z,58.40
2023-03-22T14:19:22.402Z,58.30
